sensor_id;sensor_type;location;lat;lon;timestamp;P1;durP1;ratioP1;P2;durP2;ratioP2
83690;SDS011;73671;43.220;0.064;2023-12-20T00:01:38;16.33;;;10.32;;
83690;SDS011;73671;43.220;0.064;2023-12-20T00:04:03;15.73;;;10.38;;
83690;SDS011;73671;43.220;0.064;2023-12-20T00:06:29;16.45;;;10.40;;
83690;SDS011;73671;43.220;0.064;2023-12-20T00:08:55;16.02;;;9.98;;
83690;SDS011;73671;43.220;0.064;2023-12-20T00:11:20;17.35;;;10.95;;
83690;SDS011;73671;43.220;0.064;2023-12-20T00:13:46;16.00;;;10.63;;
83690;SDS011;73671;43.220;0.064;2023-12-20T00:16:11;17.50;;;10.32;;
83690;SDS011;73671;43.220;0.064;2023-12-20T00:18:36;14.00;;;8.50;;
83690;SDS011;73671;43.220;0.064;2023-12-20T00:21:02;13.77;;;8.82;;
83690;SDS011;73671;43.220;0.064;2023-12-20T00:23:27;13.05;;;8.07;;
83690;SDS011;73671;43.220;0.064;2023-12-20T00:25:53;11.88;;;7.93;;
83690;SDS011;73671;43.220;0.064;2023-12-20T00:28:18;14.00;;;8.68;;
83690;SDS011;73671;43.220;0.064;2023-12-20T00:30:43;11.60;;;8.05;;
83690;SDS011;73671;43.220;0.064;2023-12-20T00:33:09;12.70;;;8.63;;
83690;SDS011;73671;43.220;0.064;2023-12-20T00:35:34;13.30;;;8.15;;
83690;SDS011;73671;43.220;0.064;2023-12-20T00:38:00;15.48;;;8.32;;
83690;SDS011;73671;43.220;0.064;2023-12-20T00:40:25;13.48;;;8.40;;
83690;SDS011;73671;43.220;0.064;2023-12-20T00:42:50;14.05;;;8.77;;
83690;SDS011;73671;43.220;0.064;2023-12-20T00:45:16;12.15;;;8.95;;
83690;SDS011;73671;43.220;0.064;2023-12-20T00:47:41;11.85;;;8.48;;
83690;SDS011;73671;43.220;0.064;2023-12-20T00:50:07;12.52;;;8.52;;
83690;SDS011;73671;43.220;0.064;2023-12-20T00:52:34;14.07;;;8.82;;
83690;SDS011;73671;43.220;0.064;2023-12-20T00:54:59;11.38;;;8.40;;
83690;SDS011;73671;43.220;0.064;2023-12-20T00:57:24;14.95;;;9.15;;
83690;SDS011;73671;43.220;0.064;2023-12-20T00:59:50;14.32;;;8.57;;
83690;SDS011;73671;43.220;0.064;2023-12-20T01:02:15;12.55;;;8.57;;
83690;SDS011;73671;43.220;0.064;2023-12-20T01:04:41;12.63;;;8.60;;
83690;SDS011;73671;43.220;0.064;2023-12-20T01:07:06;14.60;;;9.10;;
83690;SDS011;73671;43.220;0.064;2023-12-20T01:09:32;12.13;;;8.93;;
83690;SDS011;73671;43.220;0.064;2023-12-20T01:11:58;13.07;;;9.00;;
83690;SDS011;73671;43.220;0.064;2023-12-20T01:14:23;12.82;;;9.25;;
83690;SDS011;73671;43.220;0.064;2023-12-20T01:16:48;13.70;;;9.15;;
83690;SDS011;73671;43.220;0.064;2023-12-20T01:19:14;14.77;;;9.57;;
83690;SDS011;73671;43.220;0.064;2023-12-20T01:21:39;14.45;;;9.52;;
83690;SDS011;73671;43.220;0.064;2023-12-20T01:24:05;14.35;;;8.73;;
83690;SDS011;73671;43.220;0.064;2023-12-20T01:26:30;15.40;;;9.90;;
83690;SDS011;73671;43.220;0.064;2023-12-20T01:28:56;14.00;;;9.65;;
83690;SDS011;73671;43.220;0.064;2023-12-20T01:31:21;14.38;;;9.63;;
83690;SDS011;73671;43.220;0.064;2023-12-20T01:33:46;13.30;;;9.30;;
83690;SDS011;73671;43.220;0.064;2023-12-20T01:36:12;14.05;;;9.40;;
83690;SDS011;73671;43.220;0.064;2023-12-20T01:38:37;21.67;;;10.82;;
83690;SDS011;73671;43.220;0.064;2023-12-20T01:41:03;14.95;;;9.20;;
83690;SDS011;73671;43.220;0.064;2023-12-20T01:43:29;13.98;;;9.57;;
83690;SDS011;73671;43.220;0.064;2023-12-20T01:45:55;15.85;;;9.98;;
83690;SDS011;73671;43.220;0.064;2023-12-20T01:48:22;16.85;;;10.45;;
83690;SDS011;73671;43.220;0.064;2023-12-20T01:50:48;16.33;;;11.18;;
83690;SDS011;73671;43.220;0.064;2023-12-20T01:53:14;18.48;;;11.07;;
83690;SDS011;73671;43.220;0.064;2023-12-20T01:55:40;18.77;;;11.10;;
83690;SDS011;73671;43.220;0.064;2023-12-20T01:58:07;17.45;;;11.30;;
83690;SDS011;73671;43.220;0.064;2023-12-20T02:00:34;16.67;;;11.40;;
83690;SDS011;73671;43.220;0.064;2023-12-20T02:03:00;23.17;;;12.27;;
83690;SDS011;73671;43.220;0.064;2023-12-20T02:05:27;21.90;;;12.30;;
83690;SDS011;73671;43.220;0.064;2023-12-20T02:07:54;27.75;;;15.75;;
83690;SDS011;73671;43.220;0.064;2023-12-20T02:10:19;32.17;;;17.02;;
83690;SDS011;73671;43.220;0.064;2023-12-20T02:12:45;36.45;;;19.13;;
83690;SDS011;73671;43.220;0.064;2023-12-20T02:15:10;50.58;;;23.25;;
83690;SDS011;73671;43.220;0.064;2023-12-20T02:17:36;29.27;;;16.75;;
83690;SDS011;73671;43.220;0.064;2023-12-20T02:20:05;51.83;;;23.27;;
83690;SDS011;73671;43.220;0.064;2023-12-20T02:22:31;37.88;;;18.48;;
83690;SDS011;73671;43.220;0.064;2023-12-20T02:24:56;47.28;;;21.58;;
83690;SDS011;73671;43.220;0.064;2023-12-20T02:27:21;40.92;;;19.10;;
83690;SDS011;73671;43.220;0.064;2023-12-20T02:29:48;29.30;;;13.90;;
83690;SDS011;73671;43.220;0.064;2023-12-20T02:32:15;14.20;;;9.23;;
83690;SDS011;73671;43.220;0.064;2023-12-20T02:34:42;20.20;;;9.82;;
83690;SDS011;73671;43.220;0.064;2023-12-20T02:37:07;10.63;;;7.55;;
83690;SDS011;73671;43.220;0.064;2023-12-20T02:39:33;10.63;;;7.28;;
83690;SDS011;73671;43.220;0.064;2023-12-20T02:41:58;11.15;;;6.68;;
83690;SDS011;73671;43.220;0.064;2023-12-20T02:44:23;9.00;;;6.35;;
83690;SDS011;73671;43.220;0.064;2023-12-20T02:46:49;9.45;;;5.68;;
83690;SDS011;73671;43.220;0.064;2023-12-20T02:49:15;10.38;;;7.63;;
83690;SDS011;73671;43.220;0.064;2023-12-20T02:51:40;9.88;;;6.57;;
83690;SDS011;73671;43.220;0.064;2023-12-20T02:54:05;11.40;;;6.88;;
83690;SDS011;73671;43.220;0.064;2023-12-20T02:56:34;9.82;;;7.00;;
83690;SDS011;73671;43.220;0.064;2023-12-20T02:58:59;9.85;;;7.40;;
83690;SDS011;73671;43.220;0.064;2023-12-20T03:01:24;9.57;;;7.15;;
83690;SDS011;73671;43.220;0.064;2023-12-20T03:03:50;10.55;;;7.75;;
83690;SDS011;73671;43.220;0.064;2023-12-20T03:06:17;9.93;;;7.35;;
83690;SDS011;73671;43.220;0.064;2023-12-20T03:08:43;10.63;;;7.13;;
83690;SDS011;73671;43.220;0.064;2023-12-20T03:11:09;10.77;;;6.78;;
83690;SDS011;73671;43.220;0.064;2023-12-20T03:13:34;7.93;;;6.15;;
83690;SDS011;73671;43.220;0.064;2023-12-20T03:16:00;12.35;;;6.88;;
83690;SDS011;73671;43.220;0.064;2023-12-20T03:18:25;10.07;;;6.63;;
83690;SDS011;73671;43.220;0.064;2023-12-20T03:20:53;9.70;;;6.70;;
83690;SDS011;73671;43.220;0.064;2023-12-20T03:23:18;8.80;;;6.50;;
83690;SDS011;73671;43.220;0.064;2023-12-20T03:25:43;9.02;;;6.45;;
83690;SDS011;73671;43.220;0.064;2023-12-20T03:28:09;7.57;;;6.60;;
83690;SDS011;73671;43.220;0.064;2023-12-20T03:30:34;10.18;;;6.55;;
83690;SDS011;73671;43.220;0.064;2023-12-20T03:32:59;11.45;;;6.85;;
83690;SDS011;73671;43.220;0.064;2023-12-20T03:35:25;9.38;;;6.60;;
83690;SDS011;73671;43.220;0.064;2023-12-20T03:37:50;10.70;;;7.13;;
83690;SDS011;73671;43.220;0.064;2023-12-20T03:40:15;10.10;;;6.10;;
83690;SDS011;73671;43.220;0.064;2023-12-20T03:42:41;9.30;;;6.25;;
83690;SDS011;73671;43.220;0.064;2023-12-20T03:45:06;10.45;;;6.13;;
83690;SDS011;73671;43.220;0.064;2023-12-20T03:47:32;9.77;;;6.90;;
83690;SDS011;73671;43.220;0.064;2023-12-20T03:49:57;8.43;;;6.35;;
83690;SDS011;73671;43.220;0.064;2023-12-20T03:52:23;9.35;;;6.45;;
83690;SDS011;73671;43.220;0.064;2023-12-20T03:54:48;8.48;;;6.43;;
83690;SDS011;73671;43.220;0.064;2023-12-20T03:57:13;6.18;;;5.55;;
83690;SDS011;73671;43.220;0.064;2023-12-20T03:59:39;7.53;;;5.70;;
83690;SDS011;73671;43.220;0.064;2023-12-20T04:02:04;6.40;;;5.28;;
83690;SDS011;73671;43.220;0.064;2023-12-20T04:04:30;7.97;;;5.80;;
83690;SDS011;73671;43.220;0.064;2023-12-20T04:06:55;7.63;;;5.78;;
83690;SDS011;73671;43.220;0.064;2023-12-20T04:09:20;6.57;;;4.90;;
83690;SDS011;73671;43.220;0.064;2023-12-20T04:11:46;4.97;;;4.13;;
83690;SDS011;73671;43.220;0.064;2023-12-20T04:14:11;6.22;;;4.13;;
83690;SDS011;73671;43.220;0.064;2023-12-20T04:16:37;3.95;;;3.45;;
83690;SDS011;73671;43.220;0.064;2023-12-20T04:19:04;6.30;;;3.00;;
83690;SDS011;73671;43.220;0.064;2023-12-20T04:21:29;2.90;;;2.70;;
83690;SDS011;73671;43.220;0.064;2023-12-20T04:23:55;2.80;;;2.50;;
83690;SDS011;73671;43.220;0.064;2023-12-20T04:26:20;2.50;;;2.30;;
83690;SDS011;73671;43.220;0.064;2023-12-20T04:28:46;2.40;;;2.20;;
83690;SDS011;73671;43.220;0.064;2023-12-20T04:31:11;2.55;;;2.35;;
83690;SDS011;73671;43.220;0.064;2023-12-20T04:33:39;2.17;;;2.08;;
83690;SDS011;73671;43.220;0.064;2023-12-20T04:36:04;2.40;;;2.20;;
83690;SDS011;73671;43.220;0.064;2023-12-20T04:38:30;2.45;;;2.25;;
83690;SDS011;73671;43.220;0.064;2023-12-20T04:40:56;2.25;;;2.05;;
83690;SDS011;73671;43.220;0.064;2023-12-20T04:43:21;1.98;;;1.88;;
83690;SDS011;73671;43.220;0.064;2023-12-20T04:45:47;2.20;;;2.00;;
83690;SDS011;73671;43.220;0.064;2023-12-20T04:48:12;3.40;;;1.90;;
83690;SDS011;73671;43.220;0.064;2023-12-20T04:50:37;1.80;;;1.70;;
83690;SDS011;73671;43.220;0.064;2023-12-20T04:53:03;2.33;;;1.50;;
83690;SDS011;73671;43.220;0.064;2023-12-20T04:55:28;1.83;;;1.73;;
83690;SDS011;73671;43.220;0.064;2023-12-20T04:57:54;2.80;;;1.73;;
83690;SDS011;73671;43.220;0.064;2023-12-20T05:00:19;1.70;;;1.60;;
83690;SDS011;73671;43.220;0.064;2023-12-20T05:02:45;1.80;;;1.70;;
83690;SDS011;73671;43.220;0.064;2023-12-20T05:05:10;1.73;;;1.63;;
83690;SDS011;73671;43.220;0.064;2023-12-20T05:07:36;1.73;;;1.50;;
83690;SDS011;73671;43.220;0.064;2023-12-20T05:10:02;2.80;;;1.70;;
83690;SDS011;73671;43.220;0.064;2023-12-20T05:12:29;2.47;;;1.58;;
83690;SDS011;73671;43.220;0.064;2023-12-20T05:14:55;2.85;;;1.70;;
83690;SDS011;73671;43.220;0.064;2023-12-20T05:17:20;1.88;;;1.55;;
83690;SDS011;73671;43.220;0.064;2023-12-20T05:19:45;1.58;;;1.48;;
83690;SDS011;73671;43.220;0.064;2023-12-20T05:22:11;3.08;;;1.50;;
83690;SDS011;73671;43.220;0.064;2023-12-20T05:24:36;1.50;;;1.40;;
83690;SDS011;73671;43.220;0.064;2023-12-20T05:27:02;1.63;;;1.52;;
83690;SDS011;73671;43.220;0.064;2023-12-20T05:29:27;2.10;;;1.30;;
83690;SDS011;73671;43.220;0.064;2023-12-20T05:31:52;1.40;;;1.30;;
83690;SDS011;73671;43.220;0.064;2023-12-20T05:34:18;1.50;;;1.40;;
83690;SDS011;73671;43.220;0.064;2023-12-20T05:36:44;1.60;;;1.50;;
83690;SDS011;73671;43.220;0.064;2023-12-20T05:39:09;1.45;;;1.35;;
83690;SDS011;73671;43.220;0.064;2023-12-20T05:41:34;1.23;;;1.20;;
83690;SDS011;73671;43.220;0.064;2023-12-20T05:44:00;1.50;;;1.40;;
83690;SDS011;73671;43.220;0.064;2023-12-20T05:46:25;1.52;;;1.42;;
83690;SDS011;73671;43.220;0.064;2023-12-20T05:48:51;3.72;;;1.33;;
83690;SDS011;73671;43.220;0.064;2023-12-20T05:51:17;1.40;;;1.30;;
83690;SDS011;73671;43.220;0.064;2023-12-20T05:53:42;1.40;;;1.30;;
83690;SDS011;73671;43.220;0.064;2023-12-20T05:56:09;1.50;;;1.40;;
83690;SDS011;73671;43.220;0.064;2023-12-20T05:58:34;1.63;;;1.40;;
83690;SDS011;73671;43.220;0.064;2023-12-20T06:01:00;1.48;;;1.38;;
83690;SDS011;73671;43.220;0.064;2023-12-20T06:03:25;1.33;;;1.33;;
83690;SDS011;73671;43.220;0.064;2023-12-20T06:05:51;1.50;;;1.40;;
83690;SDS011;73671;43.220;0.064;2023-12-20T06:08:16;1.95;;;1.60;;
83690;SDS011;73671;43.220;0.064;2023-12-20T06:10:41;2.13;;;1.70;;
83690;SDS011;73671;43.220;0.064;2023-12-20T06:13:07;1.65;;;1.40;;
83690;SDS011;73671;43.220;0.064;2023-12-20T06:15:32;1.33;;;1.33;;
83690;SDS011;73671;43.220;0.064;2023-12-20T06:17:58;2.17;;;1.40;;
83690;SDS011;73671;43.220;0.064;2023-12-20T06:20:23;1.67;;;1.40;;
83690;SDS011;73671;43.220;0.064;2023-12-20T06:22:49;3.50;;;1.40;;
83690;SDS011;73671;43.220;0.064;2023-12-20T06:25:15;1.30;;;1.30;;
83690;SDS011;73671;43.220;0.064;2023-12-20T06:27:41;2.05;;;1.58;;
83690;SDS011;73671;43.220;0.064;2023-12-20T06:30:07;1.30;;;1.20;;
83690;SDS011;73671;43.220;0.064;2023-12-20T06:32:34;1.50;;;1.40;;
83690;SDS011;73671;43.220;0.064;2023-12-20T06:34:59;1.35;;;1.30;;
83690;SDS011;73671;43.220;0.064;2023-12-20T06:37:25;3.42;;;1.48;;
83690;SDS011;73671;43.220;0.064;2023-12-20T06:39:50;2.00;;;1.55;;
83690;SDS011;73671;43.220;0.064;2023-12-20T06:42:16;1.60;;;1.50;;
83690;SDS011;73671;43.220;0.064;2023-12-20T06:44:41;1.80;;;1.67;;
83690;SDS011;73671;43.220;0.064;2023-12-20T06:47:06;1.70;;;1.60;;
83690;SDS011;73671;43.220;0.064;2023-12-20T06:49:32;1.65;;;1.55;;
83690;SDS011;73671;43.220;0.064;2023-12-20T06:51:58;1.73;;;1.63;;
83690;SDS011;73671;43.220;0.064;2023-12-20T06:54:23;2.00;;;1.90;;
83690;SDS011;73671;43.220;0.064;2023-12-20T06:56:49;2.47;;;2.10;;
83690;SDS011;73671;43.220;0.064;2023-12-20T06:59:14;3.45;;;1.90;;
83690;SDS011;73671;43.220;0.064;2023-12-20T07:01:40;2.15;;;1.98;;
83690;SDS011;73671;43.220;0.064;2023-12-20T07:04:05;1.80;;;1.70;;
83690;SDS011;73671;43.220;0.064;2023-12-20T07:06:31;1.83;;;1.73;;
83690;SDS011;73671;43.220;0.064;2023-12-20T07:08:56;3.47;;;2.50;;
83690;SDS011;73671;43.220;0.064;2023-12-20T07:11:21;2.03;;;1.88;;
83690;SDS011;73671;43.220;0.064;2023-12-20T07:13:47;4.72;;;1.92;;
83690;SDS011;73671;43.220;0.064;2023-12-20T07:16:12;2.75;;;2.55;;
83690;SDS011;73671;43.220;0.064;2023-12-20T07:18:38;2.47;;;2.28;;
83690;SDS011;73671;43.220;0.064;2023-12-20T07:21:03;3.60;;;2.78;;
83690;SDS011;73671;43.220;0.064;2023-12-20T07:23:29;3.92;;;2.70;;
83690;SDS011;73671;43.220;0.064;2023-12-20T07:25:54;4.40;;;3.10;;
83690;SDS011;73671;43.220;0.064;2023-12-20T07:28:20;3.92;;;3.35;;
83690;SDS011;73671;43.220;0.064;2023-12-20T07:30:45;3.83;;;3.10;;
83690;SDS011;73671;43.220;0.064;2023-12-20T07:33:10;4.15;;;3.38;;
83690;SDS011;73671;43.220;0.064;2023-12-20T07:35:37;3.95;;;3.55;;
83690;SDS011;73671;43.220;0.064;2023-12-20T07:38:02;3.80;;;3.40;;
83690;SDS011;73671;43.220;0.064;2023-12-20T07:40:28;5.10;;;3.00;;
83690;SDS011;73671;43.220;0.064;2023-12-20T07:42:53;3.33;;;2.95;;
83690;SDS011;73671;43.220;0.064;2023-12-20T07:45:19;3.45;;;3.00;;
83690;SDS011;73671;43.220;0.064;2023-12-20T07:47:44;3.90;;;3.17;;
83690;SDS011;73671;43.220;0.064;2023-12-20T07:50:10;4.35;;;2.60;;
83690;SDS011;73671;43.220;0.064;2023-12-20T07:52:35;3.92;;;2.70;;
83690;SDS011;73671;43.220;0.064;2023-12-20T07:55:00;4.40;;;2.55;;
83690;SDS011;73671;43.220;0.064;2023-12-20T07:57:28;2.90;;;2.47;;
83690;SDS011;73671;43.220;0.064;2023-12-20T07:59:55;3.75;;;3.00;;
83690;SDS011;73671;43.220;0.064;2023-12-20T08:02:20;6.57;;;2.60;;
83690;SDS011;73671;43.220;0.064;2023-12-20T08:04:45;3.90;;;2.70;;
83690;SDS011;73671;43.220;0.064;2023-12-20T08:07:11;2.85;;;2.55;;
83690;SDS011;73671;43.220;0.064;2023-12-20T08:09:36;3.80;;;3.22;;
83690;SDS011;73671;43.220;0.064;2023-12-20T08:12:02;7.45;;;3.03;;
83690;SDS011;73671;43.220;0.064;2023-12-20T08:14:27;5.72;;;3.00;;
83690;SDS011;73671;43.220;0.064;2023-12-20T08:16:53;3.97;;;2.80;;
83690;SDS011;73671;43.220;0.064;2023-12-20T08:19:18;4.57;;;2.95;;
83690;SDS011;73671;43.220;0.064;2023-12-20T08:21:44;4.68;;;3.00;;
83690;SDS011;73671;43.220;0.064;2023-12-20T08:24:09;3.95;;;2.80;;
83690;SDS011;73671;43.220;0.064;2023-12-20T08:26:34;3.13;;;2.83;;
83690;SDS011;73671;43.220;0.064;2023-12-20T08:29:00;3.95;;;2.60;;
83690;SDS011;73671;43.220;0.064;2023-12-20T08:31:25;3.80;;;3.40;;
83690;SDS011;73671;43.220;0.064;2023-12-20T08:33:51;5.40;;;2.75;;
83690;SDS011;73671;43.220;0.064;2023-12-20T08:36:18;6.28;;;3.22;;
83690;SDS011;73671;43.220;0.064;2023-12-20T08:38:46;7.13;;;3.28;;
83690;SDS011;73671;43.220;0.064;2023-12-20T08:41:12;7.07;;;3.80;;
83690;SDS011;73671;43.220;0.064;2023-12-20T08:43:37;5.95;;;3.50;;
83690;SDS011;73671;43.220;0.064;2023-12-20T08:46:05;7.05;;;3.22;;
83690;SDS011;73671;43.220;0.064;2023-12-20T08:48:30;6.70;;;3.22;;
83690;SDS011;73671;43.220;0.064;2023-12-20T08:50:56;5.35;;;2.92;;
83690;SDS011;73671;43.220;0.064;2023-12-20T08:53:21;3.83;;;2.85;;
83690;SDS011;73671;43.220;0.064;2023-12-20T08:55:46;5.70;;;3.47;;
83690;SDS011;73671;43.220;0.064;2023-12-20T08:58:12;3.35;;;2.80;;
83690;SDS011;73671;43.220;0.064;2023-12-20T09:00:38;8.63;;;4.55;;
83690;SDS011;73671;43.220;0.064;2023-12-20T09:03:03;5.07;;;3.03;;
83690;SDS011;73671;43.220;0.064;2023-12-20T09:05:29;3.35;;;2.50;;
83690;SDS011;73671;43.220;0.064;2023-12-20T09:07:55;3.25;;;2.35;;
83690;SDS011;73671;43.220;0.064;2023-12-20T09:10:20;5.43;;;2.60;;
83690;SDS011;73671;43.220;0.064;2023-12-20T09:12:50;6.53;;;3.40;;
83690;SDS011;73671;43.220;0.064;2023-12-20T09:15:19;7.40;;;4.07;;
83690;SDS011;73671;43.220;0.064;2023-12-20T09:17:44;9.35;;;4.50;;
83690;SDS011;73671;43.220;0.064;2023-12-20T09:20:10;4.32;;;3.40;;
83690;SDS011;73671;43.220;0.064;2023-12-20T09:22:35;5.53;;;3.08;;
83690;SDS011;73671;43.220;0.064;2023-12-20T09:25:03;5.35;;;3.42;;
83690;SDS011;73671;43.220;0.064;2023-12-20T09:27:29;6.20;;;3.10;;
83690;SDS011;73671;43.220;0.064;2023-12-20T09:29:54;5.22;;;2.80;;
83690;SDS011;73671;43.220;0.064;2023-12-20T09:32:20;5.43;;;3.03;;
83690;SDS011;73671;43.220;0.064;2023-12-20T09:34:45;6.20;;;3.00;;
83690;SDS011;73671;43.220;0.064;2023-12-20T09:37:11;5.03;;;2.80;;
83690;SDS011;73671;43.220;0.064;2023-12-20T09:39:36;4.28;;;2.58;;
83690;SDS011;73671;43.220;0.064;2023-12-20T09:42:05;6.38;;;2.50;;
83690;SDS011;73671;43.220;0.064;2023-12-20T09:44:31;3.38;;;2.13;;
83690;SDS011;73671;43.220;0.064;2023-12-20T09:46:59;3.40;;;2.42;;
83690;SDS011;73671;43.220;0.064;2023-12-20T09:49:27;4.25;;;2.03;;
83690;SDS011;73671;43.220;0.064;2023-12-20T09:51:53;3.22;;;2.15;;
83690;SDS011;73671;43.220;0.064;2023-12-20T09:54:19;4.25;;;2.60;;
83690;SDS011;73671;43.220;0.064;2023-12-20T09:56:46;7.90;;;2.17;;
83690;SDS011;73671;43.220;0.064;2023-12-20T09:59:12;5.70;;;2.40;;
83690;SDS011;73671;43.220;0.064;2023-12-20T10:01:38;4.53;;;2.42;;
83690;SDS011;73671;43.220;0.064;2023-12-20T10:04:05;4.85;;;2.25;;
83690;SDS011;73671;43.220;0.064;2023-12-20T10:06:34;3.38;;;2.30;;
83690;SDS011;73671;43.220;0.064;2023-12-20T10:09:01;2.67;;;2.00;;
83690;SDS011;73671;43.220;0.064;2023-12-20T10:11:26;6.38;;;2.00;;
83690;SDS011;73671;43.220;0.064;2023-12-20T10:13:53;3.00;;;2.05;;
83690;SDS011;73671;43.220;0.064;2023-12-20T10:16:26;2.95;;;2.10;;
83690;SDS011;73671;43.220;0.064;2023-12-20T10:18:52;4.53;;;1.88;;
83690;SDS011;73671;43.220;0.064;2023-12-20T10:21:24;3.22;;;2.05;;
83690;SDS011;73671;43.220;0.064;2023-12-20T10:23:56;2.97;;;2.10;;
83690;SDS011;73671;43.220;0.064;2023-12-20T10:26:23;4.55;;;2.22;;
83690;SDS011;73671;43.220;0.064;2023-12-20T10:28:53;5.05;;;2.38;;
83690;SDS011;73671;43.220;0.064;2023-12-20T10:31:29;5.18;;;3.13;;
83690;SDS011;73671;43.220;0.064;2023-12-20T10:33:56;4.00;;;3.05;;
83690;SDS011;73671;43.220;0.064;2023-12-20T10:36:24;6.65;;;3.08;;
83690;SDS011;73671;43.220;0.064;2023-12-20T10:38:52;4.80;;;3.03;;
83690;SDS011;73671;43.220;0.064;2023-12-20T10:41:19;5.88;;;3.63;;
83690;SDS011;73671;43.220;0.064;2023-12-20T10:43:50;4.43;;;2.50;;
83690;SDS011;73671;43.220;0.064;2023-12-20T10:46:17;6.38;;;2.78;;
83690;SDS011;73671;43.220;0.064;2023-12-20T10:48:44;5.45;;;2.40;;
83690;SDS011;73671;43.220;0.064;2023-12-20T10:51:11;5.72;;;2.63;;
83690;SDS011;73671;43.220;0.064;2023-12-20T10:53:39;5.38;;;1.92;;
83690;SDS011;73671;43.220;0.064;2023-12-20T10:56:06;8.93;;;3.92;;
83690;SDS011;73671;43.220;0.064;2023-12-20T10:58:33;4.38;;;2.00;;
83690;SDS011;73671;43.220;0.064;2023-12-20T11:01:00;8.10;;;2.63;;
83690;SDS011;73671;43.220;0.064;2023-12-20T11:03:27;7.95;;;2.20;;
83690;SDS011;73671;43.220;0.064;2023-12-20T11:06:03;7.60;;;2.90;;
83690;SDS011;73671;43.220;0.064;2023-12-20T11:08:46;7.68;;;3.55;;
83690;SDS011;73671;43.220;0.064;2023-12-20T11:14:03;8.25;;;2.63;;
83690;SDS011;73671;43.220;0.064;2023-12-20T11:16:36;9.63;;;2.33;;
83690;SDS011;73671;43.220;0.064;2023-12-20T11:19:05;8.65;;;2.28;;
83690;SDS011;73671;43.220;0.064;2023-12-20T11:21:31;9.90;;;2.72;;
83690;SDS011;73671;43.220;0.064;2023-12-20T11:23:57;18.90;;;4.55;;
83690;SDS011;73671;43.220;0.064;2023-12-20T11:26:22;9.23;;;2.42;;
83690;SDS011;73671;43.220;0.064;2023-12-20T11:28:53;7.30;;;2.30;;
83690;SDS011;73671;43.220;0.064;2023-12-20T11:31:19;10.55;;;2.65;;
83690;SDS011;73671;43.220;0.064;2023-12-20T11:33:44;8.90;;;2.50;;
83690;SDS011;73671;43.220;0.064;2023-12-20T11:36:14;10.48;;;2.75;;
83690;SDS011;73671;43.220;0.064;2023-12-20T11:38:56;9.77;;;2.50;;
83690;SDS011;73671;43.220;0.064;2023-12-20T11:41:22;12.65;;;2.70;;
83690;SDS011;73671;43.220;0.064;2023-12-20T11:43:49;7.40;;;2.42;;
83690;SDS011;73671;43.220;0.064;2023-12-20T11:46:18;7.88;;;2.50;;
83690;SDS011;73671;43.220;0.064;2023-12-20T11:48:43;12.73;;;3.08;;
83690;SDS011;73671;43.220;0.064;2023-12-20T11:51:13;10.20;;;2.55;;
83690;SDS011;73671;43.220;0.064;2023-12-20T11:53:39;9.07;;;2.65;;
83690;SDS011;73671;43.220;0.064;2023-12-20T11:56:05;7.97;;;2.78;;
83690;SDS011;73671;43.220;0.064;2023-12-20T11:58:32;5.82;;;2.10;;
83690;SDS011;73671;43.220;0.064;2023-12-20T12:00:58;9.60;;;2.38;;
83690;SDS011;73671;43.220;0.064;2023-12-20T12:03:24;8.93;;;2.58;;
83690;SDS011;73671;43.220;0.064;2023-12-20T12:05:49;10.00;;;4.00;;
83690;SDS011;73671;43.220;0.064;2023-12-20T12:08:15;10.48;;;2.40;;
83690;SDS011;73671;43.220;0.064;2023-12-20T12:10:41;6.15;;;1.98;;
83690;SDS011;73671;43.220;0.064;2023-12-20T12:13:06;8.35;;;2.95;;
83690;SDS011;73671;43.220;0.064;2023-12-20T12:15:32;9.52;;;2.92;;
83690;SDS011;73671;43.220;0.064;2023-12-20T12:17:57;9.63;;;2.55;;
83690;SDS011;73671;43.220;0.064;2023-12-20T12:20:24;9.52;;;2.20;;
83690;SDS011;73671;43.220;0.064;2023-12-20T12:23:03;9.88;;;2.10;;
83690;SDS011;73671;43.220;0.064;2023-12-20T12:25:31;7.90;;;2.35;;
83690;SDS011;73671;43.220;0.064;2023-12-20T12:27:58;12.55;;;2.58;;
83690;SDS011;73671;43.220;0.064;2023-12-20T12:30:24;9.45;;;2.72;;
83690;SDS011;73671;43.220;0.064;2023-12-20T12:32:50;7.10;;;2.80;;
83690;SDS011;73671;43.220;0.064;2023-12-20T12:35:17;12.48;;;3.10;;
83690;SDS011;73671;43.220;0.064;2023-12-20T12:37:42;3.35;;;2.25;;
83690;SDS011;73671;43.220;0.064;2023-12-20T12:40:11;6.88;;;2.75;;
83690;SDS011;73671;43.220;0.064;2023-12-20T12:42:38;15.63;;;3.00;;
83690;SDS011;73671;43.220;0.064;2023-12-20T12:45:05;10.13;;;2.65;;
83690;SDS011;73671;43.220;0.064;2023-12-20T12:47:31;12.52;;;2.80;;
83690;SDS011;73671;43.220;0.064;2023-12-20T12:49:57;7.45;;;2.30;;
83690;SDS011;73671;43.220;0.064;2023-12-20T12:52:23;8.73;;;2.38;;
83690;SDS011;73671;43.220;0.064;2023-12-20T12:54:48;8.50;;;2.90;;
83690;SDS011;73671;43.220;0.064;2023-12-20T12:57:14;7.90;;;2.33;;
83690;SDS011;73671;43.220;0.064;2023-12-20T12:59:43;8.38;;;2.25;;
83690;SDS011;73671;43.220;0.064;2023-12-20T13:02:10;7.72;;;2.13;;
83690;SDS011;73671;43.220;0.064;2023-12-20T13:04:36;7.38;;;2.00;;
83690;SDS011;73671;43.220;0.064;2023-12-20T13:07:01;5.90;;;2.60;;
83690;SDS011;73671;43.220;0.064;2023-12-20T13:09:27;10.02;;;3.17;;
83690;SDS011;73671;43.220;0.064;2023-12-20T13:11:53;9.48;;;3.25;;
83690;SDS011;73671;43.220;0.064;2023-12-20T13:14:18;9.18;;;1.90;;
83690;SDS011;73671;43.220;0.064;2023-12-20T13:16:43;9.75;;;2.10;;
83690;SDS011;73671;43.220;0.064;2023-12-20T13:19:10;5.07;;;1.88;;
83690;SDS011;73671;43.220;0.064;2023-12-20T13:21:36;3.80;;;1.90;;
83690;SDS011;73671;43.220;0.064;2023-12-20T13:24:01;5.72;;;1.70;;
83690;SDS011;73671;43.220;0.064;2023-12-20T13:26:27;3.80;;;1.40;;
83690;SDS011;73671;43.220;0.064;2023-12-20T13:28:53;4.97;;;1.45;;
83690;SDS011;73671;43.220;0.064;2023-12-20T13:31:19;6.15;;;1.50;;
83690;SDS011;73671;43.220;0.064;2023-12-20T13:33:45;2.60;;;1.45;;
83690;SDS011;73671;43.220;0.064;2023-12-20T13:36:10;7.78;;;1.63;;
83690;SDS011;73671;43.220;0.064;2023-12-20T13:38:36;5.65;;;1.77;;
83690;SDS011;73671;43.220;0.064;2023-12-20T13:41:01;6.75;;;1.77;;
83690;SDS011;73671;43.220;0.064;2023-12-20T13:43:27;4.57;;;1.63;;
83690;SDS011;73671;43.220;0.064;2023-12-20T13:45:52;4.10;;;1.45;;
83690;SDS011;73671;43.220;0.064;2023-12-20T13:48:18;5.78;;;1.33;;
83690;SDS011;73671;43.220;0.064;2023-12-20T13:50:43;4.47;;;1.40;;
83690;SDS011;73671;43.220;0.064;2023-12-20T13:53:09;4.25;;;1.50;;
83690;SDS011;73671;43.220;0.064;2023-12-20T13:55:34;6.25;;;1.40;;
83690;SDS011;73671;43.220;0.064;2023-12-20T13:57:59;7.00;;;1.30;;
83690;SDS011;73671;43.220;0.064;2023-12-20T14:00:25;2.22;;;1.13;;
83690;SDS011;73671;43.220;0.064;2023-12-20T14:02:50;3.05;;;1.30;;
83690;SDS011;73671;43.220;0.064;2023-12-20T14:05:16;2.30;;;1.23;;
83690;SDS011;73671;43.220;0.064;2023-12-20T14:07:45;4.53;;;1.20;;
83690;SDS011;73671;43.220;0.064;2023-12-20T14:10:11;9.57;;;1.45;;
83690;SDS011;73671;43.220;0.064;2023-12-20T14:12:38;3.00;;;1.30;;
83690;SDS011;73671;43.220;0.064;2023-12-20T14:15:04;7.75;;;1.27;;
83690;SDS011;73671;43.220;0.064;2023-12-20T14:17:34;4.38;;;1.60;;
83690;SDS011;73671;43.220;0.064;2023-12-20T14:19:59;4.20;;;1.10;;
83690;SDS011;73671;43.220;0.064;2023-12-20T14:22:25;5.05;;;1.10;;
83690;SDS011;73671;43.220;0.064;2023-12-20T14:24:50;2.53;;;1.25;;
83690;SDS011;73671;43.220;0.064;2023-12-20T14:27:16;3.85;;;1.10;;
83690;SDS011;73671;43.220;0.064;2023-12-20T14:29:41;4.65;;;1.23;;
83690;SDS011;73671;43.220;0.064;2023-12-20T14:32:06;3.92;;;1.20;;
83690;SDS011;73671;43.220;0.064;2023-12-20T14:34:32;2.50;;;1.10;;
83690;SDS011;73671;43.220;0.064;2023-12-20T14:36:59;2.80;;;1.17;;
83690;SDS011;73671;43.220;0.064;2023-12-20T14:39:24;2.88;;;1.42;;